Thunder radar more information blitzortung!


Radar de pluja more information rain snow radar


Visita la nostra xarxa de llocs de meteo:

Template documentation
and downloads

And another site



No particular awareness of the weather is required.    There are no Weather-warnings

Pagina Historial Weather Underground text

Diari Resum Juny 5, 2017 Unitats:  Mètric    Imperial   Tant
« Previous Dia
SegĂźent Dia »
Diari Setmana Mensual Anual Personalitzada
  Maxima: Minima: Media:
Temperatura: -17.8 °C -9.6 °C -6.7 °C
Punt de rosada: -17.8 °C -12.6 °C -10.4 °C
Humitat: Humidity % 46 % 68 %
Wind Speed: 0 km/h 0 km/h 10.9 km/h
RĂ fegues de vent: 0 km/h - -
Vent:- - SW
Pression baro: 0 hPa 34198.6 hPa -
Precipitacions: 134.62 mm    
Historical Graphs
 
 
Dades de taula per Juny 5, 2017
Temps Temperatura Punt de rosada Pression baro Vent Wind Speed RĂ fegues de vent Humitat Rainfall Rate (Hourly)
-17.8 °C -17.8 °C 0 hPa Calm     Humidity % 0 mm
00:00 -9.4 °C -10.6 °C 34327.3 hPa SW 2.6 km/h 5.1 km/h 88 % 0 mm
00:01 -7.8 °C -9.7 °C 34293.4 hPa NNW 6 km/h   80 % 0 mm
00:06 -7.8 °C -9.8 °C 34327.3 hPa NNE 6 km/h 6 km/h 80 % 0 mm
00:10 -9.5 °C -10.5 °C 34327.3 hPa Calm   5.1 km/h 89 % 25.4 mm
00:20 -9.5 °C -10.5 °C 34293.4 hPa SW 5.1 km/h 5.1 km/h 89 % 25.4 mm
00:30 -9.5 °C -10.5 °C 34293.4 hPa SW 2.6 km/h 5.1 km/h 89 % 0 mm
00:40 -9.6 °C -10.6 °C 34293.4 hPa SW 2.6 km/h 7.7 km/h 89 % 0 mm
00:50 -9.6 °C -10.6 °C 34327.3 hPa SW 5.1 km/h 7.7 km/h 89 % 0 mm
01:00 -9.6 °C -10.6 °C 34327.3 hPa SW 5.1 km/h 5.1 km/h 89 % 0 mm
01:10 -9.6 °C -10.4 °C 34327.3 hPa Calm   5.1 km/h 91 % 0 mm
01:20 -9.6 °C -10.4 °C 34327.3 hPa SW 2.6 km/h 5.1 km/h 90 % 0 mm
01:30 -9.6 °C -10.4 °C 34327.3 hPa SW 2.6 km/h 5.1 km/h 91 % 0 mm
01:40 -9.6 °C -10.4 °C 34327.3 hPa Calm     91 % 0 mm
01:50 -9.6 °C -10.5 °C 34327.3 hPa SW 5.1 km/h 10.3 km/h 90 % 0 mm
02:00 -9.6 °C -10.4 °C 34327.3 hPa SW 5.1 km/h 7.7 km/h 90 % 0 mm
02:10 -9.5 °C -10.3 °C 34327.3 hPa SW 2.6 km/h 7.7 km/h 91 % 0 mm
02:20 -9.5 °C -10.2 °C 34327.3 hPa SW 2.6 km/h 5.1 km/h 92 % 0 mm
02:30 -9.5 °C -10.2 °C 34327.3 hPa SW 2.6 km/h 5.1 km/h 92 % 0 mm
02:40 -9.5 °C -10.2 °C 34327.3 hPa Calm   5.1 km/h 92 % 0 mm
02:50 -9.5 °C -10.1 °C 34327.3 hPa Calm     93 % 0 mm
03:00 -9.5 °C -10.1 °C 34327.3 hPa Calm   2.6 km/h 93 % 0 mm
03:10 -9.4 °C -10.1 °C 34361.1 hPa Calm   2.6 km/h 93 % 0 mm
03:20 -9.4 °C -10.1 °C 34327.3 hPa Calm   5.1 km/h 93 % 0 mm
03:30 -9.4 °C -10 °C 34327.3 hPa Calm   2.6 km/h 93 % 0 mm
03:40 -9.4 °C -10 °C 34327.3 hPa SW 2.6 km/h 5.1 km/h 93 % 0 mm
03:50 -9.4 °C -10 °C 34327.3 hPa SW 2.6 km/h 5.1 km/h 93 % 0 mm
04:00 -9.4 °C -10 °C 34327.3 hPa WSW 2.6 km/h 7.7 km/h 93 % 25.4 mm
04:10 -9.4 °C -10 °C 34327.3 hPa WSW 2.6 km/h 5.1 km/h 93 % 25.4 mm
04:20 -9.3 °C -9.9 °C 34327.3 hPa SW 2.6 km/h 5.1 km/h 93 % 0 mm
04:30 -9.3 °C -9.9 °C 34327.3 hPa WSW 2.6 km/h 7.7 km/h 93 % 0 mm
04:35 -9.2 °C -9.8 °C 34327.3 hPa Calm     93 % 0 mm
09:36 -9.2 °C -9.8 °C 34361.1 hPa Calm   3.1 km/h 93 % 25.4 mm
09:41 -9.2 °C -9.7 °C 34361.1 hPa Calm     94 % 25.4 mm
09:46 -9.2 °C -9.7 °C 34361.1 hPa SSW 3.1 km/h   94 % 25.4 mm
09:51 -9.1 °C -9.7 °C 34361.1 hPa Calm     94 % 25.4 mm
09:56 -9.1 °C -9.7 °C 34361.1 hPa Calm     94 % 25.4 mm
10:01 -9.1 °C -9.6 °C 34361.1 hPa SW 3.1 km/h   94 % 25.4 mm
10:06 -9.1 °C -9.6 °C 34361.1 hPa SW 6 km/h 6 km/h 94 % 25.4 mm
10:11 -9.1 °C -9.6 °C 34361.1 hPa SW 9 km/h 9 km/h 94 % 25.4 mm
10:16 -9 °C -9.6 °C 34361.1 hPa SW 11.9 km/h 11.9 km/h 94 % 0 mm
10:21 -9.1 °C -9.6 °C 34361.1 hPa SW 6 km/h 6 km/h 94 % 0 mm
10:26 -9 °C -9.6 °C 34361.1 hPa SW 6 km/h 6 km/h 94 % 0 mm
10:31 -9 °C -9.6 °C 34361.1 hPa SW 6 km/h 6 km/h 94 % 0 mm
10:36 -8.9 °C -9.5 °C 34395 hPa SW 6 km/h 6 km/h 94 % 0 mm
10:41 -8.9 °C -9.4 °C 34395 hPa SSW 3.1 km/h   94 % 0 mm
10:46 -8.9 °C -9.4 °C 34395 hPa SW 6 km/h 6 km/h 94 % 0 mm
10:51 -8.8 °C -9.3 °C 34395 hPa WSW 6 km/h 6 km/h 94 % 0 mm
10:56 -8.7 °C -9.3 °C 34395 hPa West 3.1 km/h   94 % 0 mm
11:01 -8.7 °C -9.3 °C 34395 hPa WSW 6 km/h 6 km/h 94 % 0 mm
11:06 -8.7 °C -9.3 °C 34361.1 hPa WSW 6 km/h 6 km/h 93 % 0 mm
11:11 -8.7 °C -9.3 °C 34361.1 hPa WSW 3.1 km/h   93 % 0 mm
11:16 -8.5 °C -9.1 °C 34361.1 hPa SW 7.6 km/h   93 % 0 mm
11:21 -8.4 °C -9.1 °C 34395 hPa West 6 km/h 6 km/h 93 % 0 mm
11:26 -8.4 °C -9.1 °C 34395 hPa SW 3.7 km/h   92 % 0 mm
11:31 -8.3 °C -9.2 °C 34395 hPa SW 3.1 km/h   91 % 0 mm
11:36 -8.2 °C -9.1 °C 34395 hPa Calm     91 % 0 mm
11:37 -8.2 °C -9.1 °C 34395 hPa Calm     91 % 0 mm
11:42 -8.1 °C -8.9 °C 34395 hPa SW 3.1 km/h   91 % 0 mm
11:47 -8.1 °C -9.1 °C 34395 hPa WNW 6 km/h 6 km/h 90 % 0 mm
11:52 -8.1 °C -9.1 °C 34428.8 hPa NW 9 km/h 9 km/h 90 % 0 mm
11:57 -8.1 °C -9.1 °C 34428.8 hPa South 6 km/h 6 km/h 89 % 0 mm
12:02 -8.1 °C -9.2 °C 34428.8 hPa NNW 3.1 km/h   88 % 0 mm
12:07 -8.1 °C -9.3 °C 34395 hPa NW 3.1 km/h   87 % 0 mm
12:12 -8.1 °C -9.4 °C 34395 hPa WSW 3.1 km/h 3.1 km/h 86 % 0 mm
12:17 -8 °C -9.2 °C 34395 hPa WSW 3.1 km/h 3.1 km/h 87 % 0 mm
12:22 -7.9 °C -9.1 °C 34395 hPa WSW 6 km/h 6 km/h 87 % 0 mm
12:27 -7.9 °C -9.2 °C 34395 hPa SW 6 km/h 6 km/h 86 % 0 mm
12:32 -7.9 °C -9.2 °C 34395 hPa WNW 6 km/h 6 km/h 86 % 0 mm
12:37 -7.8 °C -9.3 °C 34395 hPa WSW 6 km/h 6 km/h 85 % 0 mm
12:42 -7.8 °C -9.3 °C 34395 hPa SSE 9 km/h 9 km/h 84 % 0 mm
12:47 -7.6 °C -9.1 °C 34395 hPa West 7.6 km/h 7.6 km/h 84 % 0 mm
12:52 -7.4 °C -9 °C 34361.1 hPa SW 6 km/h 6 km/h 83 % 0 mm
12:53 -7.3 °C -9 °C 34361.1 hPa WSW 11.9 km/h 11.9 km/h 83 % 0 mm
12:58 -7.1 °C -8.9 °C 34361.1 hPa West 11.9 km/h 11.9 km/h 81 % 0 mm
13:03 -6.7 °C -8.7 °C 34361.1 hPa SSW 9 km/h 9 km/h 80 % 0 mm
13:08 -6.4 °C -8.5 °C 34361.1 hPa WSW 15 km/h 15 km/h 79 % 0 mm
13:13 -6.2 °C -8.4 °C 34361.1 hPa West 9 km/h 9 km/h 78 % 0 mm
13:18 -6.4 °C -8.8 °C 34361.1 hPa South 11.9 km/h 11.9 km/h 77 % 0 mm
13:23 -6.4 °C -8.8 °C 34361.1 hPa West 15 km/h 15 km/h 76 % 0 mm
13:28 -6.3 °C -8.8 °C 34361.1 hPa WSW 11.9 km/h 11.9 km/h 75 % 0 mm
13:33 -6.1 °C -8.8 °C 34327.3 hPa WNW 20.9 km/h 20.9 km/h 73 % 0 mm
13:38 -5.9 °C -8.8 °C 34327.3 hPa SW 17.9 km/h 17.9 km/h 72 % 0 mm
13:43 -5.8 °C -8.8 °C 34327.3 hPa NNW 18.3 km/h 18.3 km/h 71 % 0 mm
13:48 -5.6 °C -8.8 °C 34361.1 hPa NW 11.9 km/h 11.9 km/h 70 % 0 mm
13:53 -5.5 °C -8.9 °C 34361.1 hPa SW 11.1 km/h 11.1 km/h 68 % 0 mm
13:58 -5.4 °C -8.8 °C 34361.1 hPa WSW 15 km/h 15 km/h 68 % 0 mm
14:03 -5.5 °C -9.1 °C 34361.1 hPa West 11.9 km/h 11.9 km/h 67 % 0 mm
14:13 -5.3 °C -9.3 °C 34361.1 hPa WSW 23.8 km/h 23.8 km/h 64 % 0 mm
14:18 -5.1 °C -8.9 °C 34327.3 hPa South 14 km/h 14 km/h 65 % 0 mm
14:23 -4.9 °C -9 °C 34327.3 hPa WSW 15 km/h 15 km/h 63 % 0 mm
14:28 -4.6 °C -8.8 °C 34327.3 hPa SW 6 km/h 6 km/h 63 % 0 mm
14:33 -4.4 °C -8.9 °C 34327.3 hPa SW 15 km/h 15 km/h 61 % 0 mm
14:38 -4.7 °C -9.1 °C 34327.3 hPa SW 9 km/h 9 km/h 61 % 0 mm
14:43 -4.4 °C -9 °C 34327.3 hPa South 9 km/h 9 km/h 60 % 0 mm
14:48 -4.4 °C -9.5 °C 34327.3 hPa WSW 15 km/h 15 km/h 57 % 0 mm
14:53 -4.1 °C -8.7 °C 34327.3 hPa SSE 9.3 km/h 9.3 km/h 60 % 0 mm
14:58 -4 °C -8.9 °C 34327.3 hPa SW 15 km/h 15 km/h 58 % 0 mm
15:03 -4.1 °C -8.9 °C 34327.3 hPa South 15 km/h 15 km/h 58 % 0 mm
15:08 -3.7 °C -8.8 °C 34327.3 hPa SW 9 km/h 9 km/h 57 % 0 mm
15:13 -3.6 °C -9.2 °C 34327.3 hPa SSW 12.7 km/h 12.7 km/h 54 % 0 mm
15:18 -3.7 °C -9.1 °C 34293.4 hPa West 6 km/h 6 km/h 55 % 0 mm
15:23 -3.9 °C -9.3 °C 34293.4 hPa SSW 16.1 km/h 16.1 km/h 55 % 0 mm
15:28 -4.1 °C -9.3 °C 34293.4 hPa South 9 km/h 9 km/h 56 % 0 mm
15:33 -3.8 °C -9.4 °C 34327.3 hPa SSW 16.1 km/h 16.1 km/h 54 % 0 mm
15:38 -3.9 °C -9.3 °C 34327.3 hPa SW 15 km/h 15 km/h 55 % 0 mm
15:43 -4.2 °C -9.6 °C 34327.3 hPa SW 15 km/h 15 km/h 55 % 0 mm
15:48 -4.3 °C -9.8 °C 34327.3 hPa South 20.9 km/h 20.9 km/h 54 % 0 mm
15:53 -4.2 °C -9.5 °C 34327.3 hPa South 15 km/h 15 km/h 55 % 0 mm
15:58 -3.8 °C -9.5 °C 34327.3 hPa SSW 9 km/h 9 km/h 53 % 0 mm
16:03 -3.7 °C -9.4 °C 34293.4 hPa SW 17.9 km/h 17.9 km/h 53 % 0 mm
16:08 -4.2 °C -9.8 °C 34293.4 hPa SW 6 km/h 6 km/h 53 % 0 mm
16:13 -4 °C -9.6 °C 34293.4 hPa SW 3.1 km/h 3.1 km/h 54 % 0 mm
16:23 -3.9 °C -9.8 °C 34256.2 hPa WNW 15 km/h 15 km/h 52 % 0 mm
16:28 -3.8 °C -9.7 °C 34256.2 hPa SSW 6.8 km/h 7.6 km/h 52 % 0 mm
16:33 -4.1 °C -9.8 °C 34293.4 hPa SW 22 km/h 22 km/h 53 % 0 mm
16:38 -4.3 °C -10 °C 34293.4 hPa SW 11.9 km/h 11.9 km/h 53 % 0 mm
16:43 -4.4 °C -10.1 °C 34293.4 hPa WNW 11.9 km/h 11.9 km/h 53 % 0 mm
16:48 -4.6 °C -10.4 °C 34256.2 hPa SW 20.9 km/h 20.9 km/h 52 % 0 mm
16:53 -4.3 °C -10.2 °C 34256.2 hPa WSW 15 km/h 15 km/h 52 % 0 mm
16:58 -3.8 °C -9.7 °C 34256.2 hPa SW 11.1 km/h 11.1 km/h 52 % 0 mm
17:03 -3.5 °C -9.6 °C 34256.2 hPa West 11.9 km/h 11.9 km/h 51 % 0 mm
17:08 -3.6 °C -9.8 °C 34256.2 hPa WSW 20.9 km/h 20.9 km/h 50 % 0 mm
17:13 -3.8 °C -9.9 °C 34256.2 hPa WSW 11.9 km/h 11.9 km/h 50 % 0 mm
17:18 -4.2 °C -10.2 °C 34256.2 hPa SW 11.9 km/h 11.9 km/h 51 % 0 mm
17:23 -4.3 °C -10.3 °C 34256.2 hPa SW 6.3 km/h   51 % 0 mm
17:28 -4 °C -10 °C 34256.2 hPa SW 15 km/h 15 km/h 51 % 0 mm
17:33 -4.1 °C -10.1 °C 34256.2 hPa SW 15 km/h 15 km/h 51 % 0 mm
17:38 -4.1 °C -10.3 °C 34256.2 hPa WSW 15 km/h 15 km/h 50 % 0 mm
17:43 -3.9 °C -10.1 °C 34256.2 hPa South 17.9 km/h 17.9 km/h 50 % 0 mm
17:48 -3.8 °C -10.2 °C 34222.3 hPa SW 15.3 km/h 15.3 km/h 49 % 0 mm
17:53 -3.7 °C -10.1 °C 34222.3 hPa WSW 15 km/h 15 km/h 49 % 0 mm
17:58 -3.6 °C -10.1 °C 34222.3 hPa SW 16.1 km/h 16.1 km/h 48 % 0 mm
18:03 -3.6 °C -10.2 °C 34222.3 hPa West 15 km/h 15 km/h 48 % 0 mm
18:08 -4 °C -10.4 °C 34222.3 hPa South 15 km/h 15 km/h 49 % 0 mm
18:13 -4.1 °C -10.4 °C 34222.3 hPa SSW 15 km/h 15 km/h 49 % 0 mm
18:18 -4 °C -10.5 °C 34198.6 hPa WSW 11.9 km/h 11.9 km/h 48 % 0 mm
18:23 -3.8 °C -10.6 °C 34198.6 hPa WSW 20.9 km/h 20.9 km/h 47 % 0 mm
18:28 -3.9 °C -10.8 °C 34198.6 hPa South 16.6 km/h 16.6 km/h 46 % 0 mm
18:33 -4 °C -10.7 °C 34198.6 hPa WSW 23.8 km/h 23.8 km/h 47 % 0 mm
18:38 -4.3 °C -11.2 °C 34198.6 hPa WSW 20.9 km/h 20.9 km/h 46 % 0 mm
18:43 -4.3 °C -10.9 °C 34198.6 hPa West 23.8 km/h 23.8 km/h 47 % 0 mm
18:48 -4.2 °C -10.9 °C 34222.3 hPa West 27.7 km/h 27.7 km/h 47 % 0 mm
18:53 -4.3 °C -11 °C 34222.3 hPa SW 20.9 km/h 20.9 km/h 47 % 0 mm
18:58 -4.3 °C -10.9 °C 34222.3 hPa SW 20.9 km/h 20.9 km/h 47 % 0 mm
19:03 -4.3 °C -11.2 °C 34198.6 hPa SSW 23.8 km/h 23.8 km/h 46 % 0 mm
19:08 -4.4 °C -11.1 °C 34198.6 hPa SW 15 km/h 15 km/h 47 % 0 mm
19:13 -4.7 °C -11.3 °C 34198.6 hPa SW 17.9 km/h 17.9 km/h 47 % 0 mm
19:18 -4.8 °C -11.5 °C 34222.3 hPa WSW 20.9 km/h 20.9 km/h 47 % 0 mm
19:23 -4.8 °C -11.5 °C 34222.3 hPa SW 11.9 km/h 11.9 km/h 47 % 0 mm
19:28 -4.8 °C -11.5 °C 34222.3 hPa SW 17.9 km/h 17.9 km/h 47 % 0 mm
19:33 -5 °C -11.6 °C 34222.3 hPa SW 17.9 km/h 17.9 km/h 47 % 0 mm
19:38 -5.1 °C -11.4 °C 34222.3 hPa SW 20.9 km/h 20.9 km/h 49 % 0 mm
19:43 -5.2 °C -11.4 °C 34222.3 hPa SW 17.9 km/h 17.9 km/h 49 % 0 mm
19:48 -5.2 °C -11.5 °C 34222.3 hPa SW 11.9 km/h 11.9 km/h 49 % 0 mm
19:53 -5.2 °C -11.4 °C 34222.3 hPa SSW 9 km/h 9 km/h 49 % 0 mm
19:58 -5.2 °C -11.5 °C 34222.3 hPa SW 17.9 km/h 17.9 km/h 49 % 0 mm
20:03 -5.3 °C -11.6 °C 34222.3 hPa SW 20.9 km/h 20.9 km/h 49 % 0 mm
20:08 -5.3 °C -11.7 °C 34222.3 hPa SSW 14 km/h 14 km/h 48 % 0 mm
20:13 -5.3 °C -11.9 °C 34222.3 hPa SW 26.9 km/h 26.9 km/h 47 % 0 mm
20:18 -5.3 °C -11.8 °C 34222.3 hPa WSW 26.4 km/h 26.4 km/h 48 % 0 mm
20:23 -5.4 °C -12 °C 34222.3 hPa SW 20.9 km/h 20.9 km/h 47 % 0 mm
20:28 -5.4 °C -12.1 °C 34222.3 hPa SW 20.9 km/h 20.9 km/h 47 % 0 mm
20:33 -5.5 °C -12.1 °C 34256.2 hPa SW 17.9 km/h 17.9 km/h 47 % 0 mm
20:38 -5.6 °C -12.1 °C 34256.2 hPa SW 15 km/h 15 km/h 47 % 0 mm
20:43 -5.7 °C -12.3 °C 34256.2 hPa SSW 17.9 km/h 17.9 km/h 47 % 0 mm
20:48 -5.8 °C -12.3 °C 34256.2 hPa SSW 20.9 km/h 20.9 km/h 47 % 0 mm
20:53 -5.9 °C -12.3 °C 34256.2 hPa SSW 20.9 km/h 20.9 km/h 48 % 0 mm
20:58 -6 °C -12.4 °C 34256.2 hPa SW 17.9 km/h 17.9 km/h 48 % 0 mm
21:03 -6.1 °C -12.4 °C 34222.3 hPa SW 23.8 km/h 23.8 km/h 48 % 0 mm
21:08 -6.2 °C -12.3 °C 34222.3 hPa SW 20.9 km/h 20.9 km/h 49 % 0 mm
21:13 -6.3 °C -12.4 °C 34222.3 hPa WSW 19.6 km/h 19.6 km/h 49 % 0 mm
21:18 -6.4 °C -12.6 °C 34222.3 hPa South 15 km/h 15 km/h 49 % 0 mm
21:23 -6.4 °C -12.4 °C 34222.3 hPa WSW 26.9 km/h 26.9 km/h 50 % 0 mm
21:28 -6.6 °C -12.6 °C 34222.3 hPa SW 15 km/h 15 km/h 50 % 0 mm
21:33 -6.6 °C -12.6 °C 34256.2 hPa SW 17.9 km/h 17.9 km/h 50 % 0 mm
21:38 -6.7 °C -12.4 °C 34256.2 hPa WSW 15 km/h 15.3 km/h 51 % 0 mm
21:43 -6.7 °C -12.6 °C 34256.2 hPa WSW 22 km/h 22 km/h 51 % 0 mm
21:48 -6.8 °C -12.4 °C 34256.2 hPa SW 19.2 km/h 19.2 km/h 52 % 0 mm
21:53 -6.9 °C -12.4 °C 34256.2 hPa SW 20.3 km/h 20.3 km/h 53 % 0 mm
21:58 -7 °C -12.3 °C 34256.2 hPa SW 11.9 km/h 11.9 km/h 54 % 0 mm
22:03 -7.1 °C -12.3 °C 34256.2 hPa SSW 12.7 km/h 12.7 km/h 55 % 0 mm
22:08 -7.2 °C -12.2 °C 34256.2 hPa SW 18.3 km/h 18.3 km/h 56 % 0 mm
22:13 -7.2 °C -11.8 °C 34256.2 hPa WSW 15 km/h 15 km/h 58 % 0 mm
22:18 -7.2 °C -11.9 °C 34256.2 hPa SW 15 km/h 15 km/h 58 % 0 mm
22:23 -7.2 °C -11.8 °C 34256.2 hPa SW 15 km/h 15 km/h 59 % 0 mm
22:28 -7.3 °C -11.7 °C 34256.2 hPa SW 20.9 km/h 20.9 km/h 60 % 0 mm
22:33 -7.3 °C -11.6 °C 34256.2 hPa South 17.9 km/h 17.9 km/h 61 % 0 mm
22:38 -7.4 °C -11.7 °C 34256.2 hPa SW 11.9 km/h 11.9 km/h 61 % 0 mm
22:43 -7.4 °C -11.7 °C 34256.2 hPa SW 9.3 km/h 9.3 km/h 61 % 0 mm
22:48 -7.5 °C -11.8 °C 34256.2 hPa SW 11.9 km/h 11.9 km/h 61 % 0 mm
22:53 -7.6 °C -11.7 °C 34256.2 hPa SW 9 km/h 9 km/h 62 % 0 mm
22:58 -7.6 °C -11.7 °C 34256.2 hPa SSW 9.3 km/h 9.3 km/h 62 % 0 mm
22:59 -7.6 °C -11.7 °C 34256.2 hPa SSW 9.3 km/h 9.3 km/h 62 % 0 mm
23:04 -7.7 °C -11.8 °C 34256.2 hPa SW 8 km/h 8 km/h 62 % 0 mm
23:09 -7.7 °C -11.7 °C 34256.2 hPa WSW 9 km/h 9 km/h 63 % 0 mm
23:14 -7.8 °C -11.8 °C 34256.2 hPa SW 11.9 km/h 11.9 km/h 63 % 0 mm
23:19 -7.8 °C -11.8 °C 34256.2 hPa SSW 9 km/h 9 km/h 63 % 0 mm
23:24 -7.8 °C -11.8 °C 34256.2 hPa SW 6 km/h 6 km/h 63 % 0 mm
23:29 -7.9 °C -11.8 °C 34256.2 hPa SW 7.6 km/h 7.6 km/h 63 % 0 mm
23:31 -7.9 °C -11.8 °C 34256.2 hPa SW 9 km/h 9 km/h 63 % 0 mm
23:36 -7.9 °C -11.9 °C 34293.4 hPa SW 9 km/h 9 km/h 63 % 0 mm
23:41 -8 °C -11.8 °C 34293.4 hPa SW 7.6 km/h 7.6 km/h 64 % 0 mm
23:46 -8.1 °C -12 °C 34293.4 hPa SSW 11.9 km/h 11.9 km/h 63 % 0 mm
23:51 -8.1 °C -11.9 °C 34256.2 hPa SW 11.9 km/h 11.9 km/h 64 % 0 mm
23:56 -8 °C -11.8 °C 34256.2 hPa SW 12.2 km/h 12.2 km/h 64 % 0 mm
Meteo Sesrovires
Elogis d' Weather Underground - 1.5 mb

Guio original per  Jim McMurry - jmcmurry@mwt.net Adaptat per a la plantilla per  Wim van der Kuil - Leuven-Template.eu

Trobareu la nostra informacio del temps tambe a:

Weather Underground

AWEKAS